createdAt,value
2017-06-03T00:01:00.218Z,26.87
2017-06-03T00:03:30.330Z,29.17
2017-06-03T00:06:00.506Z,28.67
2017-06-03T00:08:30.651Z,29.33
2017-06-03T00:11:02.082Z,27.27
2017-06-03T00:13:32.695Z,25.17
2017-06-03T00:16:02.859Z,27.90
2017-06-03T00:18:33.910Z,26.10
2017-06-03T00:21:04.402Z,25.80
2017-06-03T00:23:34.781Z,24.73
2017-06-03T00:26:05.089Z,23.87
2017-06-03T00:28:35.672Z,23.53
2017-06-03T00:31:05.853Z,25.23
2017-06-03T00:33:36.013Z,22.77
2017-06-03T00:36:07.147Z,25.77
2017-06-03T00:38:37.714Z,24.30
2017-06-03T00:41:07.843Z,25.47
2017-06-03T00:43:37.911Z,23.87
2017-06-03T00:46:08.944Z,25.07
2017-06-03T00:48:39.116Z,24.80
2017-06-03T00:51:09.243Z,24.70
2017-06-03T00:53:39.725Z,26.40
2017-06-03T00:56:09.818Z,25.07
2017-06-03T00:58:40.615Z,22.80
2017-06-03T01:01:11.264Z,23.17
2017-06-03T01:03:41.467Z,23.13
2017-06-03T01:06:12.691Z,22.60
2017-06-03T01:08:43.158Z,25.60
2017-06-03T01:11:13.220Z,24.67
2017-06-03T01:13:43.966Z,25.13
2017-06-03T01:16:14.101Z,23.70
2017-06-03T01:18:44.189Z,24.00
2017-06-03T01:21:14.340Z,23.87
2017-06-03T01:23:44.502Z,25.10
2017-06-03T01:26:14.647Z,21.73
2017-06-03T01:28:44.770Z,24.90
2017-06-03T01:31:15.008Z,25.97
2017-06-03T01:33:45.198Z,28.77
2017-06-03T01:36:15.387Z,24.17
2017-06-03T01:38:45.715Z,23.47
2017-06-03T01:41:15.907Z,22.40
2017-06-03T01:43:46.123Z,23.97
2017-06-03T01:46:16.282Z,24.03
2017-06-03T01:48:46.453Z,22.87
2017-06-03T01:51:16.915Z,23.50
2017-06-03T01:53:47.153Z,25.53
2017-06-03T01:56:17.378Z,28.07
2017-06-03T01:58:47.617Z,29.23
2017-06-03T02:01:18.100Z,26.90
2017-06-03T02:03:48.252Z,26.43
2017-06-03T02:06:19.331Z,23.50
2017-06-03T02:08:49.582Z,25.07
2017-06-03T02:11:19.727Z,29.33
2017-06-03T02:13:49.974Z,25.43
2017-06-03T02:16:20.833Z,27.50
2017-06-03T02:18:53.090Z,26.90
2017-06-03T02:21:23.498Z,25.53
2017-06-03T02:23:53.603Z,32.17
2017-06-03T02:26:24.633Z,28.60
2017-06-03T02:28:56.335Z,24.00
2017-06-03T02:31:27.034Z,28.33
2017-06-03T02:33:58.084Z,27.77
2017-06-03T02:36:28.822Z,31.43
2017-06-03T02:38:59.810Z,29.20
2017-06-03T02:41:29.882Z,27.57
2017-06-03T02:44:01.878Z,26.53
2017-06-03T02:46:32.616Z,30.43
2017-06-03T02:49:03.001Z,26.37
2017-06-03T02:51:33.047Z,27.10
2017-06-03T02:54:03.213Z,25.63
2017-06-03T02:56:33.360Z,26.37
2017-06-03T02:59:04.177Z,23.57
2017-06-03T03:01:35.364Z,22.80
2017-06-03T03:04:06.178Z,23.97
2017-06-03T03:06:36.957Z,21.20
2017-06-03T03:09:07.598Z,22.07
2017-06-03T03:11:37.734Z,21.90
2017-06-03T03:14:07.980Z,18.13
2017-06-03T03:16:38.239Z,20.90
2017-06-03T03:19:08.966Z,16.97
2017-06-03T03:21:39.288Z,19.40
2017-06-03T03:24:10.600Z,18.97
2017-06-03T03:26:41.209Z,20.90
2017-06-03T03:29:13.297Z,18.83
2017-06-03T03:31:44.198Z,18.60
2017-06-03T03:34:14.565Z,16.70
2017-06-03T03:36:46.323Z,19.30
2017-06-03T03:39:17.496Z,16.63
2017-06-03T03:41:47.707Z,18.17
2017-06-03T03:44:18.682Z,14.43
2017-06-03T03:46:48.856Z,15.90
2017-06-03T03:49:18.954Z,15.83
2017-06-03T03:51:49.554Z,17.07
2017-06-03T03:54:19.760Z,17.43
2017-06-03T03:56:49.947Z,17.03
2017-06-03T03:59:20.105Z,19.13
2017-06-03T04:01:50.707Z,24.30
2017-06-03T04:04:20.979Z,22.47
2017-06-03T04:06:52.179Z,23.50
2017-06-03T04:09:22.381Z,25.17
2017-06-03T04:11:52.657Z,22.50
2017-06-03T04:14:24.335Z,23.43
2017-06-03T04:16:55.121Z,27.40
2017-06-03T04:19:25.591Z,25.23
2017-06-03T04:21:56.555Z,26.73
2017-06-03T04:24:27.721Z,25.03
2017-06-03T04:26:58.468Z,27.03
2017-06-03T04:29:29.326Z,24.40
2017-06-03T04:31:59.949Z,26.93
2017-06-03T04:34:30.134Z,23.93
2017-06-03T04:37:00.518Z,24.73
2017-06-03T04:39:30.997Z,24.33
2017-06-03T04:42:02.671Z,26.90
2017-06-03T04:44:32.870Z,26.20
2017-06-03T04:47:03.705Z,28.90
2017-06-03T04:49:34.576Z,25.13
2017-06-03T04:52:05.436Z,29.23
2017-06-03T04:54:35.638Z,27.80
2017-06-03T04:57:05.847Z,29.27
2017-06-03T04:59:36.003Z,30.97
2017-06-03T05:02:07.843Z,29.87
2017-06-03T05:04:39.254Z,32.93
2017-06-03T05:07:09.396Z,35.60
2017-06-03T05:09:39.687Z,33.53
2017-06-03T05:12:09.844Z,34.10
2017-06-03T05:14:40.015Z,35.00
2017-06-03T05:17:10.960Z,34.70
2017-06-03T05:19:42.278Z,36.63
2017-06-03T05:22:12.578Z,42.03
2017-06-03T05:24:42.847Z,38.87
2017-06-03T05:27:12.926Z,40.03
2017-06-03T05:29:43.076Z,42.30
2017-06-03T05:32:16.032Z,42.50
2017-06-03T05:34:46.758Z,41.67
2017-06-03T05:37:17.986Z,43.80
2017-06-03T05:39:48.222Z,43.43
2017-06-03T05:42:18.507Z,37.73
2017-06-03T05:44:48.600Z,44.03
2017-06-03T05:47:19.742Z,40.03
2017-06-03T05:49:50.032Z,45.37
2017-06-03T05:52:20.247Z,47.80
2017-06-03T05:54:51.052Z,43.83
2017-06-03T05:57:21.286Z,44.43
2017-06-03T05:59:52.569Z,44.40
2017-06-03T06:02:22.705Z,43.27
2017-06-03T06:04:52.985Z,44.57
2017-06-03T06:07:23.195Z,43.77
2017-06-03T06:09:53.976Z,46.17
2017-06-03T06:12:25.643Z,45.50
2017-06-03T06:14:56.909Z,44.33
2017-06-03T06:17:26.996Z,42.00
2017-06-03T06:19:57.306Z,41.97
2017-06-03T06:22:27.495Z,41.23
2017-06-03T06:24:57.724Z,40.77
2017-06-03T06:27:27.966Z,39.33
2017-06-03T06:29:58.212Z,40.00
2017-06-03T06:32:28.321Z,43.40
2017-06-03T06:34:58.398Z,43.10
2017-06-03T06:37:28.579Z,40.07
2017-06-03T06:39:58.914Z,38.97
2017-06-03T06:42:29.249Z,37.77
2017-06-03T06:44:59.498Z,36.30
2017-06-03T06:47:29.626Z,40.90
2017-06-03T06:50:00.671Z,37.27
2017-06-03T06:52:31.003Z,36.23
2017-06-03T06:55:01.489Z,38.40
2017-06-03T06:57:31.623Z,35.67
2017-06-03T07:00:01.709Z,34.40
2017-06-03T07:02:33.178Z,37.80
2017-06-03T07:05:03.354Z,35.60
2017-06-03T07:07:33.521Z,37.00
2017-06-03T07:10:04.047Z,34.50
2017-06-03T07:12:34.238Z,35.63
2017-06-03T07:15:04.443Z,33.40
2017-06-03T07:17:36.214Z,33.57
2017-06-03T07:20:07.185Z,33.13
2017-06-03T07:22:37.364Z,35.70
2017-06-03T07:25:08.837Z,37.27
2017-06-03T07:27:41.037Z,35.30
2017-06-03T07:30:11.414Z,32.17
2017-06-03T07:32:41.611Z,32.90
2017-06-03T07:35:12.215Z,30.37
2017-06-03T07:37:42.418Z,30.37
2017-06-03T07:41:31.739Z,29.33
2017-06-03T07:44:02.813Z,29.03
2017-06-03T07:46:33.700Z,30.83
2017-06-03T07:49:03.812Z,29.77
2017-06-03T07:51:34.878Z,29.30
2017-06-03T07:54:05.101Z,28.07
2017-06-03T07:56:36.978Z,28.73
2017-06-03T07:59:07.884Z,28.10
2017-06-03T08:01:39.377Z,27.73
2017-06-03T08:04:11.450Z,27.60
2017-06-03T08:06:41.624Z,26.47
2017-06-03T08:09:12.012Z,23.63
2017-06-03T08:11:42.414Z,26.33
2017-06-03T08:14:12.648Z,26.03
2017-06-03T08:16:43.221Z,23.87
2017-06-03T08:19:13.358Z,23.93
2017-06-03T08:21:43.706Z,23.40
2017-06-03T08:24:16.438Z,22.00
2017-06-03T08:26:47.272Z,22.83
2017-06-03T08:29:17.619Z,21.10
2017-06-03T08:31:49.095Z,19.80
2017-06-03T08:34:19.736Z,15.80
2017-06-03T08:36:51.209Z,15.80
2017-06-03T08:39:21.456Z,17.07
2017-06-03T08:41:51.635Z,22.63
2017-06-03T08:44:21.923Z,21.00
2017-06-03T08:46:53.141Z,19.60
2017-06-03T08:49:23.390Z,22.80
2017-06-03T08:51:54.282Z,23.37
2017-06-03T08:54:24.561Z,22.83
2017-06-03T08:56:54.962Z,23.30
2017-06-03T08:59:25.120Z,23.57
2017-06-03T09:01:55.331Z,23.43
2017-06-03T09:04:25.603Z,26.90
2017-06-03T09:06:55.799Z,28.67
2017-06-03T09:09:26.134Z,35.20
2017-06-03T09:11:56.611Z,27.27
2017-06-03T09:14:27.855Z,26.00
2017-06-03T09:17:00.462Z,49.93
2017-06-03T09:19:31.914Z,84.80
2017-06-03T09:22:05.115Z,29.10
2017-06-03T09:24:37.412Z,29.00
2017-06-03T09:27:08.526Z,28.40
2017-06-03T09:29:38.707Z,19.10
2017-06-03T09:32:08.847Z,20.73
2017-06-03T09:34:39.062Z,22.27
2017-06-03T09:37:09.442Z,20.70
2017-06-03T09:39:39.698Z,21.80
2017-06-03T09:42:09.908Z,19.80
2017-06-03T09:44:40.161Z,17.57
2017-06-03T09:47:13.790Z,12.80
2017-06-03T09:49:48.754Z,12.80
2017-06-03T09:52:19.929Z,21.70
2017-06-03T09:54:50.087Z,18.30
2017-06-03T09:57:24.371Z,16.27
2017-06-03T09:59:54.697Z,17.40
2017-06-03T10:02:24.985Z,29.57
2017-06-03T10:04:56.015Z,18.07
2017-06-03T10:07:26.916Z,16.70
2017-06-03T10:09:57.242Z,15.87
2017-06-03T10:12:31.989Z,15.60
2017-06-03T10:15:03.013Z,19.17
2017-06-03T10:17:35.036Z,18.00
2017-06-03T10:20:06.635Z,17.00
2017-06-03T10:22:38.511Z,18.17
2017-06-03T10:25:08.768Z,21.50
2017-06-03T10:27:38.987Z,22.97
2017-06-03T10:30:09.140Z,25.43
2017-06-03T10:32:40.289Z,25.97
2017-06-03T10:35:10.435Z,19.67
2017-06-03T10:37:40.704Z,16.03
2017-06-03T10:40:11.702Z,14.27
2017-06-03T10:42:41.952Z,16.43
2017-06-03T10:45:12.232Z,13.60
2017-06-03T10:47:44.014Z,14.83
2017-06-03T10:50:14.352Z,17.27
2017-06-03T10:52:44.704Z,13.33
2017-06-03T10:55:14.886Z,18.17
2017-06-03T10:57:45.106Z,15.47
2017-06-03T11:00:15.331Z,15.07
2017-06-03T11:02:47.843Z,13.97
2017-06-03T11:05:20.538Z,14.03
2017-06-03T11:07:50.799Z,11.33
2017-06-03T11:10:21.152Z,10.80
2017-06-03T11:12:51.405Z,11.70
2017-06-03T11:15:21.612Z,13.30
2017-06-03T11:17:51.856Z,11.30
2017-06-03T11:20:22.014Z,10.93
2017-06-03T11:22:52.311Z,13.83
2017-06-03T11:25:22.443Z,12.20
2017-06-03T11:27:52.790Z,16.53
2017-06-03T11:30:23.022Z,17.83
2017-06-03T11:32:53.250Z,18.50
2017-06-03T11:35:23.670Z,15.53
2017-06-03T11:37:53.821Z,15.00
2017-06-03T11:40:23.988Z,17.93
2017-06-03T11:42:54.285Z,18.83
2017-06-03T11:45:25.297Z,15.63
2017-06-03T11:47:55.528Z,14.73
2017-06-03T11:50:25.918Z,12.07
2017-06-03T11:52:56.163Z,13.60
2017-06-03T11:55:26.733Z,13.53
2017-06-03T11:57:57.056Z,23.00
2017-06-03T12:00:27.359Z,16.80
2017-06-03T12:02:57.704Z,18.03
2017-06-03T12:05:28.716Z,16.27
2017-06-03T12:07:58.970Z,13.63
2017-06-03T12:10:29.194Z,13.70
2017-06-03T12:12:59.461Z,13.87
2017-06-03T12:15:29.792Z,17.73
2017-06-03T12:18:00.064Z,14.17
2017-06-03T12:20:30.354Z,12.37
2017-06-03T12:23:01.769Z,14.90
2017-06-03T12:25:32.679Z,14.17
2017-06-03T12:28:03.855Z,15.30
2017-06-03T12:30:33.974Z,17.50
2017-06-03T12:33:04.282Z,14.47
2017-06-03T12:35:37.975Z,12.43
2017-06-03T12:38:09.054Z,12.47
2017-06-03T12:40:39.371Z,10.33
2017-06-03T12:43:09.614Z,11.37
2017-06-03T12:45:40.021Z,7.93
2017-06-03T12:48:10.466Z,11.80
2017-06-03T12:50:40.726Z,11.07
2017-06-03T12:53:10.960Z,8.73
2017-06-03T12:55:41.205Z,7.57
2017-06-03T12:58:12.418Z,7.93
2017-06-03T13:00:43.558Z,6.83
2017-06-03T13:03:14.552Z,7.67
2017-06-03T13:05:45.667Z,6.60
2017-06-03T13:08:15.931Z,6.43
2017-06-03T13:10:48.130Z,5.77
2017-06-03T13:13:18.495Z,7.70
2017-06-03T13:15:48.687Z,7.83
2017-06-03T13:18:18.864Z,6.50
2017-06-03T13:20:49.200Z,6.30
2017-06-03T13:23:19.834Z,6.13
2017-06-03T13:25:50.591Z,6.73
2017-06-03T13:28:20.848Z,4.40
2017-06-03T13:30:51.147Z,4.90
2017-06-03T13:33:21.354Z,5.03
2017-06-03T13:35:51.470Z,5.80
2017-06-03T13:38:23.089Z,4.60
2017-06-03T13:40:53.358Z,5.50
2017-06-03T13:43:24.607Z,4.90
2017-06-03T13:45:54.842Z,4.63
2017-06-03T13:48:25.441Z,4.30
2017-06-03T13:50:59.942Z,4.57
2017-06-03T13:53:30.871Z,3.83
2017-06-03T13:56:01.182Z,4.20
2017-06-03T13:58:31.989Z,4.90
2017-06-03T14:01:02.107Z,4.53
2017-06-03T14:03:32.388Z,4.30
2017-06-03T14:06:02.693Z,4.43
2017-06-03T14:08:33.989Z,4.90
2017-06-03T14:11:05.339Z,4.87
2017-06-03T14:13:35.602Z,4.63
2017-06-03T14:16:06.091Z,9.33
2017-06-03T14:18:37.372Z,11.30
2017-06-03T14:21:07.739Z,8.87
2017-06-03T14:23:38.508Z,8.20
2017-06-03T14:26:08.853Z,9.20
2017-06-03T14:28:39.028Z,8.43
2017-06-03T14:31:09.323Z,9.10
2017-06-03T14:33:39.609Z,8.70
2017-06-03T14:36:09.879Z,8.93
2017-06-03T14:38:40.247Z,10.93
2017-06-03T14:41:10.760Z,11.77
2017-06-03T14:43:42.091Z,9.67
2017-06-03T14:46:12.754Z,10.63
2017-06-03T14:48:43.537Z,10.30
2017-06-03T14:51:14.326Z,10.17
2017-06-03T14:53:45.938Z,8.80
2017-06-03T14:56:16.267Z,10.00
2017-06-03T14:58:46.381Z,8.57
2017-06-03T15:01:16.507Z,9.17
2017-06-03T15:03:48.354Z,8.17
2017-06-03T15:06:19.873Z,9.07
2017-06-03T15:08:51.191Z,7.80
2017-06-03T15:11:22.922Z,8.20
2017-06-03T15:13:54.109Z,8.87
2017-06-03T15:16:25.356Z,9.60
2017-06-03T15:18:56.637Z,7.33
2017-06-03T15:21:28.422Z,8.30
2017-06-03T15:24:01.094Z,8.17
2017-06-03T15:26:32.531Z,8.77
2017-06-03T15:29:03.911Z,8.17
2017-06-03T15:31:34.504Z,8.50
2017-06-03T15:34:04.688Z,8.87
2017-06-03T15:36:34.959Z,7.27
2017-06-03T15:39:05.496Z,9.20
2017-06-03T15:41:38.386Z,9.17
2017-06-03T15:44:08.677Z,7.23
2017-06-03T15:46:38.839Z,7.70
2017-06-03T15:49:11.300Z,7.70
2017-06-03T15:51:46.560Z,9.13
2017-06-03T15:54:17.971Z,8.70
2017-06-03T15:56:48.322Z,8.90
2017-06-03T15:59:21.928Z,9.97
2017-06-03T16:01:53.197Z,10.93
2017-06-03T16:04:23.494Z,9.53
2017-06-03T16:06:53.848Z,9.93
2017-06-03T16:09:24.414Z,10.20
2017-06-03T16:11:55.123Z,10.30
2017-06-03T16:14:28.026Z,9.27
2017-06-03T16:16:58.565Z,9.93
2017-06-03T16:19:28.822Z,8.40
2017-06-03T16:22:00.237Z,6.93
2017-06-03T16:24:31.179Z,8.40
2017-06-03T16:27:02.156Z,8.93
2017-06-03T16:29:32.732Z,8.10
2017-06-03T16:32:03.424Z,8.67
2017-06-03T16:34:33.606Z,8.07
2017-06-03T16:37:03.878Z,8.67
2017-06-03T16:39:34.250Z,8.80
2017-06-03T16:42:04.722Z,8.40
2017-06-03T16:44:41.775Z,8.07
2017-06-03T16:47:13.780Z,9.63
2017-06-03T16:49:44.840Z,8.80
2017-06-03T16:52:16.027Z,8.77
2017-06-03T16:54:48.357Z,8.30
2017-06-03T16:57:18.607Z,9.10
2017-06-03T16:59:49.601Z,9.90
2017-06-03T17:02:19.870Z,9.50
2017-06-03T17:04:50.667Z,9.40
2017-06-03T17:07:21.570Z,9.67
2017-06-03T17:09:52.327Z,10.93
2017-06-03T17:12:23.067Z,14.23
2017-06-03T17:14:53.407Z,13.80
2017-06-03T17:17:24.933Z,15.23
2017-06-03T17:19:55.182Z,15.57
2017-06-03T17:22:26.626Z,17.10
2017-06-03T17:24:58.608Z,16.73
2017-06-03T17:27:29.169Z,15.50
2017-06-03T17:30:00.044Z,16.07
2017-06-03T17:32:31.541Z,17.00
2017-06-03T17:35:02.839Z,17.60
2017-06-03T17:37:33.373Z,16.43
2017-06-03T17:40:04.121Z,19.70
2017-06-03T17:42:34.789Z,16.50
2017-06-03T17:45:06.208Z,16.47
2017-06-03T18:25:10.659Z,25.30
2017-06-03T18:27:41.703Z,24.23
2017-06-03T18:30:11.942Z,24.60
2017-06-03T18:32:42.212Z,26.20
2017-06-03T18:35:12.486Z,22.53
2017-06-03T18:37:42.708Z,23.10
2017-06-03T18:40:13.907Z,23.60
2017-06-03T18:42:44.211Z,28.70
2017-06-03T18:45:14.464Z,26.37
2017-06-03T18:47:45.931Z,31.33
2017-06-03T18:50:16.435Z,30.23
2017-06-03T18:52:46.821Z,31.83
2017-06-03T18:55:17.619Z,31.30
2017-06-03T18:57:48.070Z,32.03
2017-06-03T19:00:19.454Z,31.53
2017-06-03T19:02:50.700Z,29.43
2017-06-03T19:05:20.927Z,27.93
2017-06-03T19:07:51.090Z,30.93
2017-06-03T19:10:21.974Z,30.83
2017-06-03T19:12:52.202Z,29.00
2017-06-03T19:15:22.480Z,27.07
2017-06-03T19:17:53.395Z,28.03
2017-06-03T19:20:23.543Z,25.20
2017-06-03T19:22:54.289Z,27.20
2017-06-03T19:25:25.662Z,30.10
2017-06-03T19:28:11.483Z,29.60
2017-06-03T19:30:41.934Z,24.40
2017-06-03T19:33:12.056Z,29.30
2017-06-03T19:35:42.156Z,27.10
2017-06-03T19:38:12.374Z,29.70
2017-06-03T19:40:42.482Z,24.73
2017-06-03T19:43:12.517Z,26.57
2017-06-03T19:45:42.592Z,23.30
2017-06-03T19:48:12.633Z,27.53
2017-06-03T19:50:45.265Z,24.63
2017-06-03T19:53:17.013Z,30.43
2017-06-03T19:55:50.339Z,28.90
2017-06-03T19:58:20.443Z,28.53
2017-06-03T20:00:51.168Z,29.00
2017-06-03T20:03:21.924Z,29.50
2017-06-03T20:05:51.972Z,27.13
2017-06-03T20:08:22.350Z,28.30
2017-06-03T20:10:52.656Z,26.03
2017-06-03T20:13:23.807Z,27.97
2017-06-03T20:15:53.951Z,27.67
2017-06-03T20:18:24.177Z,29.67
2017-06-03T20:20:55.000Z,29.47
2017-06-03T20:23:25.167Z,30.10
2017-06-03T20:25:56.554Z,29.90
2017-06-03T20:28:26.812Z,27.50
2017-06-03T20:30:57.743Z,32.90
2017-06-03T20:33:28.144Z,31.80
2017-06-03T20:35:58.986Z,31.67
2017-06-03T20:38:29.162Z,29.93
2017-06-03T20:40:59.356Z,32.50
2017-06-03T20:43:29.534Z,32.20
2017-06-03T20:45:59.703Z,29.90
2017-06-03T20:48:31.025Z,26.90
2017-06-03T20:51:01.249Z,29.97
2017-06-03T20:53:31.524Z,27.33
2017-06-03T20:56:01.821Z,27.73
2017-06-03T20:58:32.219Z,27.70
2017-06-03T21:01:04.427Z,22.97
2017-06-03T21:03:35.574Z,21.87
2017-06-03T21:06:10.344Z,19.93
2017-06-03T21:08:41.074Z,19.27
2017-06-03T21:11:13.670Z,16.50
2017-06-03T21:13:43.816Z,13.37
2017-06-03T21:16:15.258Z,13.30
2017-06-03T21:18:45.762Z,13.17
2017-06-03T21:21:18.006Z,11.27
2017-06-03T21:23:48.363Z,11.33
2017-06-03T21:26:19.422Z,10.57
2017-06-03T21:28:49.567Z,11.60
2017-06-03T21:31:21.388Z,12.30
2017-06-03T21:34:01.767Z,13.50
2017-06-03T21:36:33.713Z,12.63
2017-06-03T21:40:11.029Z,13.37
2017-06-03T21:42:41.440Z,13.77
2017-06-03T21:45:11.524Z,16.30
2017-06-03T21:47:43.725Z,17.00
2017-06-03T21:50:13.962Z,22.30
2017-06-03T21:52:44.190Z,22.87
2017-06-03T21:55:16.510Z,23.43
2017-06-03T21:57:47.254Z,21.60
2017-06-03T22:00:17.396Z,27.47
2017-06-03T22:02:47.771Z,24.87
2017-06-03T22:05:18.676Z,27.50
2017-06-03T22:07:49.910Z,26.23
2017-06-03T22:10:21.158Z,25.43
2017-06-03T22:12:51.786Z,30.47
2017-06-03T22:15:22.315Z,26.10
2017-06-03T22:17:52.978Z,27.97
2017-06-03T22:20:22.956Z,28.67
2017-06-03T22:22:52.941Z,30.60
2017-06-03T22:25:23.915Z,38.17
2017-06-03T22:27:55.743Z,30.80
2017-06-03T22:30:25.857Z,27.07
2017-06-03T22:32:56.350Z,26.93
2017-06-03T22:35:28.465Z,26.13
2017-06-03T22:37:58.522Z,32.97
2017-06-03T22:40:30.596Z,37.80
2017-06-03T22:43:01.911Z,30.73
2017-06-03T22:45:32.442Z,31.27
2017-06-03T22:48:03.329Z,28.67
2017-06-03T22:50:33.356Z,37.70
2017-06-03T22:53:06.211Z,40.83
2017-06-03T22:55:36.192Z,31.23
2017-06-03T22:58:07.092Z,38.10
2017-06-03T23:00:41.069Z,41.53
2017-06-03T23:03:11.365Z,34.00
2017-06-03T23:05:41.603Z,40.70
2017-06-03T23:08:13.189Z,43.67
2017-06-03T23:10:43.780Z,45.73
2017-06-03T23:13:13.813Z,39.80
2017-06-03T23:15:49.616Z,42.87
2017-06-03T23:18:20.169Z,38.73
2017-06-03T23:20:50.154Z,38.53
2017-06-03T23:23:20.164Z,48.70
2017-06-03T23:25:51.999Z,44.13
2017-06-03T23:28:25.731Z,43.27
2017-06-03T23:30:55.999Z,45.87
2017-06-03T23:33:26.883Z,41.07
2017-06-03T23:35:57.285Z,40.37
2017-06-03T23:38:30.693Z,44.30
2017-06-03T23:41:00.665Z,46.23
2017-06-03T23:43:33.202Z,48.50
2017-06-03T23:46:04.118Z,46.93
2017-06-03T23:48:34.607Z,46.00
2017-06-03T23:51:05.127Z,39.00
2017-06-03T23:53:35.510Z,42.67
2017-06-03T23:56:05.793Z,42.53
2017-06-03T23:58:38.763Z,37.67
